createdAt,value
2023-04-07T00:01:02.356Z,11.32
2023-04-07T00:06:01.223Z,11.18
2023-04-07T00:10:59.942Z,12.02
2023-04-07T00:15:58.783Z,8.80
2023-04-07T00:20:57.794Z,11.80
2023-04-07T00:25:56.559Z,10.70
2023-04-07T00:30:55.379Z,12.25
2023-04-07T00:35:54.536Z,9.00
2023-04-07T00:41:00.360Z,9.07
2023-04-07T00:45:59.406Z,8.18
2023-04-07T00:50:58.308Z,8.10
2023-04-07T00:55:57.352Z,7.75
2023-04-07T01:01:01.572Z,7.63
2023-04-07T01:06:02.770Z,8.05
2023-04-07T01:11:25.813Z,8.98
2023-04-07T01:16:35.575Z,6.75
2023-04-07T01:21:37.974Z,8.93
2023-04-07T01:26:38.636Z,9.77
2023-04-07T01:31:41.030Z,8.40
2023-04-07T01:36:41.551Z,7.82
2023-04-07T01:41:41.971Z,7.95
2023-04-07T01:46:41.249Z,9.25
2023-04-07T01:51:40.839Z,7.97
2023-04-07T01:56:39.557Z,8.82
2023-04-07T02:01:39.362Z,7.28
2023-04-07T02:06:49.231Z,6.50
2023-04-07T02:11:52.821Z,6.10
2023-04-07T02:16:53.034Z,8.00
2023-04-07T02:21:52.596Z,8.32
2023-04-07T02:26:51.928Z,6.97
2023-04-07T02:31:50.708Z,7.57
2023-04-07T02:36:49.523Z,7.03
2023-04-07T02:41:48.380Z,8.05
2023-04-07T02:46:47.182Z,7.28
2023-04-07T02:51:47.059Z,8.27
2023-04-07T02:56:46.290Z,9.00
2023-04-07T03:01:45.222Z,9.25
2023-04-07T03:06:44.338Z,6.43
2023-04-07T03:11:46.679Z,5.75
2023-04-07T03:16:45.798Z,6.55
2023-04-07T03:21:46.298Z,7.80
2023-04-07T03:26:45.186Z,7.10
2023-04-07T03:31:53.988Z,6.68
2023-04-07T03:36:56.180Z,7.15
2023-04-07T03:41:58.159Z,7.80
2023-04-07T03:47:01.042Z,6.75
2023-04-07T03:52:02.137Z,6.95
2023-04-07T03:57:02.955Z,6.38
2023-04-07T04:02:04.860Z,6.97
2023-04-07T04:07:03.977Z,7.80
2023-04-07T04:12:23.145Z,6.90
2023-04-07T04:17:32.929Z,6.38
2023-04-07T04:22:32.036Z,8.30
2023-04-07T04:27:31.936Z,8.75
2023-04-07T04:32:37.039Z,8.13
2023-04-07T04:37:37.457Z,7.57
2023-04-07T04:42:41.677Z,6.43
2023-04-07T04:47:44.139Z,6.30
2023-04-07T04:52:43.898Z,6.70
2023-04-07T04:57:50.839Z,6.88
2023-04-07T05:02:56.639Z,10.68
2023-04-07T05:07:56.908Z,7.82
2023-04-07T05:12:59.672Z,7.07
2023-04-07T05:17:58.579Z,7.05
2023-04-07T05:22:59.884Z,7.63
2023-04-07T05:28:04.043Z,8.15
2023-04-07T05:33:03.918Z,8.15
2023-04-07T05:38:12.159Z,8.93
2023-04-07T05:43:12.276Z,7.95
2023-04-07T05:48:11.536Z,9.48
2023-04-07T05:53:15.460Z,6.20
2023-04-07T05:58:14.413Z,7.18
2023-04-07T06:03:19.803Z,8.15
2023-04-07T06:08:27.449Z,7.57
2023-04-07T06:13:26.434Z,8.88
2023-04-07T06:18:25.592Z,10.77
2023-04-07T06:23:24.394Z,7.28
2023-04-07T06:28:23.453Z,7.38
2023-04-07T06:33:25.793Z,8.07
2023-04-07T06:38:24.640Z,11.38
2023-04-07T06:43:23.549Z,11.40
2023-04-07T06:48:28.021Z,9.00
2023-04-07T06:53:26.830Z,10.10
2023-04-07T06:58:25.672Z,12.00
2023-04-07T07:03:27.766Z,7.47
2023-04-07T07:08:27.839Z,9.48
2023-04-07T07:13:27.380Z,9.55
2023-04-07T07:18:26.330Z,9.48
2023-04-07T07:23:25.133Z,11.50
2023-04-07T07:28:23.911Z,8.20
2023-04-07T07:33:22.931Z,7.60
2023-04-07T07:38:21.797Z,9.52
2023-04-07T07:43:20.584Z,8.35
2023-04-07T07:48:19.386Z,9.13
2023-04-07T07:53:18.701Z,11.13
2023-04-07T07:58:17.651Z,10.15
2023-04-07T08:03:17.159Z,10.20
2023-04-07T08:08:16.242Z,9.15
2023-04-07T08:13:15.332Z,10.68
2023-04-07T08:18:14.241Z,9.93
2023-04-07T08:23:13.188Z,10.10
2023-04-07T08:28:12.283Z,9.95
2023-04-07T08:33:11.145Z,12.10
2023-04-07T08:38:10.307Z,12.75
2023-04-07T08:43:10.157Z,10.43
2023-04-07T08:48:17.846Z,12.43
2023-04-07T08:53:23.341Z,13.85
2023-04-07T08:58:22.449Z,9.82
2023-04-07T09:03:23.017Z,11.82
2023-04-07T09:08:21.828Z,10.73
2023-04-07T09:13:20.821Z,10.40
2023-04-07T09:18:19.927Z,11.02
2023-04-07T09:23:32.596Z,12.00
2023-04-07T09:28:47.492Z,10.73
2023-04-07T09:33:46.749Z,11.23
2023-04-07T09:38:46.464Z,10.55
2023-04-07T09:43:46.816Z,10.98
2023-04-07T09:48:47.047Z,10.43
2023-04-07T09:53:53.414Z,12.48
2023-04-07T09:58:52.248Z,11.38
2023-04-07T10:03:51.585Z,9.50
2023-04-07T10:08:50.964Z,11.02
2023-04-07T10:13:50.174Z,10.27
2023-04-07T10:18:49.591Z,9.13
2023-04-07T10:23:59.989Z,11.27
2023-04-07T10:29:04.675Z,8.77
2023-04-07T10:34:03.769Z,9.30
2023-04-07T10:39:11.436Z,7.13
2023-04-07T10:44:31.341Z,10.73
2023-04-07T10:49:30.597Z,7.55
2023-04-07T10:54:29.541Z,6.68
2023-04-07T10:59:32.432Z,8.25
2023-04-07T11:09:41.545Z,8.38
2023-04-07T11:14:42.102Z,7.82
2023-04-07T11:19:53.793Z,7.07
2023-04-07T11:24:52.611Z,8.15
2023-04-07T11:29:51.473Z,9.68
2023-04-07T11:34:50.743Z,6.45
2023-04-07T11:39:57.063Z,7.63
2023-04-07T11:44:56.190Z,8.30
2023-04-07T11:49:55.050Z,5.97
2023-04-07T11:54:54.047Z,6.38
2023-04-07T12:00:08.815Z,8.13
2023-04-07T12:05:10.972Z,7.32
2023-04-07T12:10:21.192Z,7.60
2023-04-07T12:15:21.751Z,8.20
2023-04-07T12:20:20.590Z,9.60
2023-04-07T12:25:19.417Z,9.35
2023-04-07T12:30:18.284Z,11.05
2023-04-07T12:35:17.151Z,8.48
2023-04-07T12:40:18.095Z,7.78
2023-04-07T12:45:16.836Z,10.02
2023-04-07T12:50:16.133Z,9.52
2023-04-07T12:55:14.915Z,10.38
2023-04-07T13:00:14.442Z,11.20
2023-04-07T13:05:13.216Z,11.32
2023-04-07T13:10:12.092Z,10.85
2023-04-07T13:15:11.040Z,12.90
2023-04-07T13:20:10.350Z,10.35
2023-04-07T13:25:09.906Z,7.72
2023-04-07T13:30:09.134Z,7.80
2023-04-07T13:35:08.284Z,9.73
2023-04-07T13:40:07.754Z,10.27
2023-04-07T13:45:07.353Z,8.88
2023-04-07T13:50:07.068Z,9.75
2023-04-07T13:55:06.936Z,8.85
2023-04-07T14:00:07.355Z,8.60
2023-04-07T14:05:07.891Z,8.30
2023-04-07T14:10:08.895Z,9.75
2023-04-07T14:15:09.883Z,10.10
2023-04-07T14:20:09.472Z,9.18
2023-04-07T14:25:08.327Z,8.05
2023-04-07T14:30:07.835Z,8.70
2023-04-07T14:35:07.309Z,7.68
2023-04-07T14:40:07.558Z,9.13
2023-04-07T14:45:07.157Z,8.35
2023-04-07T14:50:06.709Z,9.75
2023-04-07T14:55:06.099Z,7.25
2023-04-07T15:00:07.694Z,8.20
2023-04-07T15:05:06.933Z,6.53
2023-04-07T15:10:06.592Z,8.02
2023-04-07T15:15:06.531Z,11.15
2023-04-07T15:20:06.421Z,8.48
2023-04-07T15:25:05.832Z,9.60
2023-04-07T15:30:05.119Z,10.15
2023-04-07T15:35:04.103Z,8.80
2023-04-07T15:40:03.111Z,10.50
2023-04-07T15:45:01.845Z,9.48
2023-04-07T15:50:00.769Z,8.85
2023-04-07T15:54:59.727Z,11.75
2023-04-07T15:59:58.626Z,10.85
2023-04-07T16:04:57.727Z,10.15
2023-04-07T16:09:56.470Z,10.23
2023-04-07T16:14:55.391Z,10.38
2023-04-07T16:19:54.418Z,10.63
2023-04-07T16:24:53.162Z,10.73
2023-04-07T16:29:52.001Z,12.00
2023-04-07T16:34:50.927Z,10.68
2023-04-07T16:39:49.855Z,9.90
2023-04-07T16:44:48.639Z,11.63
2023-04-07T16:49:47.691Z,12.90
2023-04-07T16:54:46.972Z,9.85
2023-04-07T16:59:46.444Z,10.13
2023-04-07T17:04:45.557Z,8.90
2023-04-07T17:09:44.330Z,9.80
2023-04-07T17:14:43.138Z,8.95
2023-04-07T17:19:41.873Z,8.48
2023-04-07T17:24:40.851Z,11.40
2023-04-07T17:29:39.698Z,8.63
2023-04-07T17:34:38.524Z,9.27
2023-04-07T17:39:37.300Z,12.10
2023-04-07T17:44:36.052Z,8.20
2023-04-07T17:49:35.069Z,8.95
2023-04-07T17:54:34.622Z,9.95
2023-04-07T17:59:33.355Z,9.77
2023-04-07T18:04:32.245Z,9.95
2023-04-07T18:09:31.517Z,12.18
2023-04-07T18:14:30.349Z,11.60
2023-04-07T18:19:30.198Z,9.50
2023-04-07T18:24:29.150Z,11.38
2023-04-07T18:29:28.098Z,11.80
2023-04-07T18:34:27.012Z,11.77
2023-04-07T18:39:28.162Z,10.38
2023-04-07T18:44:28.409Z,11.95
2023-04-07T18:49:29.131Z,8.85
2023-04-07T18:54:28.565Z,9.13
2023-04-07T18:59:27.558Z,11.23
2023-04-07T19:04:26.533Z,11.07
2023-04-07T19:09:26.114Z,15.23
2023-04-07T19:14:24.992Z,11.95
2023-04-07T19:19:23.983Z,13.10
2023-04-07T19:24:22.768Z,11.88
2023-04-07T19:29:22.037Z,22.50
2023-04-07T19:34:21.070Z,12.27
2023-04-07T19:39:20.044Z,12.95
2023-04-07T19:44:19.113Z,14.30
2023-04-07T19:49:17.881Z,13.15
2023-04-07T19:54:17.618Z,10.80
2023-04-07T19:59:16.322Z,13.32
2023-04-07T20:04:15.302Z,14.45
2023-04-07T20:09:14.172Z,11.98
2023-04-07T20:14:13.143Z,11.55
2023-04-07T20:19:12.539Z,15.27
2023-04-07T20:24:12.076Z,9.73
2023-04-07T20:29:10.839Z,9.45
2023-04-07T20:34:09.832Z,11.80
2023-04-07T20:39:08.627Z,10.25
2023-04-07T20:44:07.579Z,11.45
2023-04-07T20:49:08.120Z,10.60
2023-04-07T20:54:07.820Z,7.55
2023-04-07T20:59:06.783Z,8.95
2023-04-07T21:04:05.990Z,9.88
2023-04-07T21:09:07.472Z,7.88
2023-04-07T21:14:06.220Z,8.80
2023-04-07T21:19:05.012Z,8.07
2023-04-07T21:24:04.113Z,11.32
2023-04-07T21:29:03.034Z,11.80
2023-04-07T21:34:01.953Z,11.80
2023-04-07T21:39:00.717Z,12.38
2023-04-07T21:43:59.643Z,17.05
2023-04-07T21:48:58.469Z,11.80
2023-04-07T21:53:57.218Z,12.65
2023-04-07T21:58:56.292Z,11.23
2023-04-07T22:03:55.311Z,11.15
2023-04-07T22:09:01.082Z,12.00
2023-04-07T22:14:00.869Z,13.00
2023-04-07T22:18:59.668Z,11.13
2023-04-07T22:23:58.471Z,13.18
2023-04-07T22:28:57.232Z,13.02
2023-04-07T22:33:56.593Z,11.20
2023-04-07T22:38:56.442Z,10.73
2023-04-07T22:43:55.377Z,13.48
2023-04-07T22:48:54.311Z,12.32
2023-04-07T22:53:53.039Z,9.95
2023-04-07T22:58:52.232Z,12.38
2023-04-07T23:03:51.010Z,14.05
2023-04-07T23:08:50.067Z,12.13
2023-04-07T23:13:49.279Z,13.57
2023-04-07T23:18:48.261Z,13.68
2023-04-07T23:23:47.250Z,13.63
2023-04-07T23:28:46.395Z,13.75
2023-04-07T23:33:45.381Z,13.88
2023-04-07T23:38:44.225Z,13.07
2023-04-07T23:43:42.994Z,15.82
2023-04-07T23:48:42.385Z,14.27
2023-04-07T23:53:41.171Z,15.80
2023-04-07T23:58:39.999Z,14.13
